aviador You're here:

KDRT Decoded Metar

DEL RIO in TX, USA
Report Time2018-01-19 15:53:00
UTC Time2018-01-19 16:55:38
Flight Rules ifr IFR
WindCalm
Visibility9999 m
Phenomena:N/A
Clouds:Overcast 007 Hf
Expected CloudBase > 800 ft AGL from Temp-Dew spread
Ceiling700 ft
Temp03°C (ISA -10)
Dew Point01°C (87% RH)
AAT1.2°C
QNH1024 hPa
Density Alt-459 ft
Elevation1,027 ft
Report Wrong Elevation
Raw Report
METAR KDRT 191553Z AUTO 00000KT 7SM OVC007 03/01 A3025 RMK AO2 SLP246
T00280006=

Extra information for KDRT:More info

Metar Taf Metar & Taf Last 4 Metars F.Rules Stats Wind Profile Meteogram Temp Stats Airport Information Weather charts Add Link Nearby VenuesMetar ALERT Operation Metar Decoded Social comments

AIRNAV info for KDRT